Time;durP1;ratioP1;P1;durP2;ratioP2;P2;SDS_P1;SDS_P2;PMS_P1;PMS_P2;Temp;Humidity;BMP_temperature;BMP_pressure;BME280_temperature;BME280_humidity;BME280_pressure;Samples;Min_cycle;Max_cycle;Signal;HPM_P1;HPM_P2
2022/08/10 00:00:50;;;;;;;7.20;6.03;;;15.20;99.90;;;;;;6162713;23;20552;-75
2022/08/10 00:03:16;;;;;;;6.53;5.90;;;15.10;99.90;;;;;;6185341;23;20029;-76
2022/08/10 00:05:42;;;;;;;5.88;5.28;;;15.20;99.90;;;;;;6186330;23;20020;-75
2022/08/10 00:08:07;;;;;;;4.63;4.22;;;15.00;99.90;;;;;;6136751;23;20522;-75
2022/08/10 00:10:33;;;;;;;6.13;5.30;;;14.80;99.90;;;;;;6161808;23;20016;-74
2022/08/10 00:12:59;;;;;;;5.90;4.07;;;14.80;99.90;;;;;;6186796;23;20361;-74
2022/08/10 00:15:25;;;;;;;11.90;10.27;;;14.60;99.90;;;;;;6186663;23;20028;-75
2022/08/10 00:17:50;;;;;;;7.85;5.95;;;14.50;99.90;;;;;;6186594;23;20354;-75
2022/08/10 00:20:16;;;;;;;8.05;6.00;;;14.60;99.90;;;;;;6136047;23;20456;-75
2022/08/10 00:22:42;;;;;;;6.70;4.57;;;14.60;99.90;;;;;;6186530;23;20016;-75
2022/08/10 00:25:08;;;;;;;5.50;5.00;;;14.60;99.90;;;;;;6161804;23;20119;-75
2022/08/10 00:27:34;;;;;;;6.65;4.70;;;14.60;99.90;;;;;;6186858;23;20016;-75
2022/08/10 00:30:00;;;;;;;4.93;4.28;;;14.50;99.90;;;;;;6162409;23;20437;-76
2022/08/10 00:32:26;;;;;;;5.32;4.50;;;14.50;99.90;;;;;;6160028;23;20024;-76
2022/08/10 00:34:51;;;;;;;6.05;5.10;;;14.50;99.90;;;;;;6161512;23;20013;-75
2022/08/10 00:37:18;;;;;;;5.95;5.13;;;14.60;99.90;;;;;;6160553;23;20106;-77
2022/08/10 00:39:45;;;;;;;5.10;4.53;;;14.50;99.90;;;;;;6162015;23;20067;-76
2022/08/10 00:42:12;;;;;;;5.18;4.45;;;14.50;99.90;;;;;;6157837;23;20012;-77
2022/08/10 00:44:46;;;;;;;3.83;3.20;;;14.40;99.90;;;;;;6155532;23;20016;-77
2022/08/10 00:47:13;;;;;;;3.00;2.70;;;14.30;99.90;;;;;;6158429;23;20035;-76
2022/08/10 00:49:39;;;;;;;5.68;3.25;;;14.20;99.90;;;;;;6186297;23;20013;-76
2022/08/10 00:52:06;;;;;;;5.57;4.20;;;14.10;99.90;;;;;;6184588;23;20020;-77
2022/08/10 00:54:34;;;;;;;6.13;5.35;;;14.10;99.90;;;;;;6160816;23;20024;-76
2022/08/10 00:57:00;;;;;;;6.43;5.60;;;14.20;99.90;;;;;;6184357;23;20461;-76
2022/08/10 00:59:25;;;;;;;6.78;6.03;;;14.20;99.90;;;;;;6160365;23;20119;-76
2022/08/10 01:01:51;;;;;;;7.55;5.72;;;14.30;99.90;;;;;;6160631;23;20797;-76
2022/08/10 01:04:17;;;;;;;6.97;6.28;;;14.40;99.90;;;;;;6184390;23;20013;-76
2022/08/10 01:07:04;;;;;;;8.43;7.15;;;14.40;99.90;;;;;;6185170;23;20017;-76
2022/08/10 01:09:54;;;;;;;6.63;5.93;;;14.50;99.90;;;;;;6184591;23;20013;-75
2022/08/10 01:12:50;;;;;;;5.85;5.25;;;14.40;99.90;;;;;;6159970;23;20366;-76
2022/08/10 01:15:22;;;;;;;7.63;5.70;;;14.40;99.90;;;;;;6133267;23;20535;-76
2022/08/10 01:17:56;;;;;;;7.68;6.07;;;14.40;99.90;;;;;;6158371;23;20108;-76
2022/08/10 01:20:51;;;;;;;9.02;6.25;;;14.40;99.90;;;;;;6183684;23;20016;-76
2022/08/10 01:23:23;;;;;;;8.18;6.63;;;14.40;99.90;;;;;;6158390;23;20066;-75
2022/08/10 01:26:08;;;;;;;8.57;7.68;;;14.50;99.90;;;;;;6186024;23;20066;-76
2022/08/10 01:29:02;;;;;;;6.75;5.80;;;14.50;99.90;;;;;;6185631;23;20070;-75
2022/08/10 01:31:32;;;;;;;8.02;6.38;;;14.40;99.90;;;;;;6186613;23;20066;-75
2022/08/10 01:34:10;;;;;;;6.57;5.15;;;14.30;99.90;;;;;;6185705;23;20017;-76
2022/08/10 01:36:47;;;;;;;12.90;5.93;;;14.30;99.90;;;;;;6163344;23;20048;-77
2022/08/10 01:39:28;;;;;;;7.95;6.07;;;14.30;99.90;;;;;;6162036;23;20334;-75
2022/08/10 01:41:57;;;;;;;7.45;6.35;;;14.30;99.90;;;;;;6162698;23;20052;-76
2022/08/10 01:44:30;;;;;;;7.65;6.05;;;14.30;99.90;;;;;;6186291;23;20365;-76
2022/08/10 01:48:27;;;;;;;8.65;7.18;;;14.40;99.90;;;;;;6187862;23;20095;-78
2022/08/10 01:49:49;;;;;;;7.35;6.05;;;14.40;99.90;;;;;;6187165;23;20016;-76
2022/08/10 01:52:17;;;;;;;8.15;7.00;;;14.50;99.90;;;;;;6162196;23;20019;-77
2022/08/10 01:54:44;;;;;;;7.05;5.55;;;14.60;99.90;;;;;;6161281;23;20017;-75
2022/08/10 01:57:10;;;;;;;6.70;5.30;;;14.70;99.90;;;;;;6187078;23;20063;-76
2022/08/10 01:59:40;;;;;;;4.20;3.80;;;14.60;99.90;;;;;;6137488;23;20015;-75
2022/08/10 02:02:12;;;;;;;4.35;3.20;;;14.50;99.90;;;;;;6161218;23;20023;-75
2022/08/10 02:04:41;;;;;;;3.15;2.85;;;14.30;99.90;;;;;;6161940;23;20146;-75
2022/08/10 02:07:12;;;;;;;3.95;3.55;;;14.20;99.90;;;;;;6187164;23;20016;-74
2022/08/10 02:09:42;;;;;;;3.72;3.25;;;14.20;99.90;;;;;;6187027;23;20008;-75
2022/08/10 02:12:12;;;;;;;3.42;3.13;;;14.00;99.90;;;;;;6187231;23;20012;-75
2022/08/10 02:14:43;;;;;;;4.10;3.70;;;14.10;99.90;;;;;;6187328;23;20016;-75
2022/08/10 02:17:13;;;;;;;4.80;4.30;;;14.20;99.90;;;;;;6187248;23;20091;-75
2022/08/10 02:19:40;;;;;;;3.80;3.50;;;14.20;99.90;;;;;;6162106;23;20017;-76
2022/08/10 02:22:08;;;;;;;5.32;4.82;;;14.20;99.90;;;;;;6162295;23;20017;-75
2022/08/10 02:24:36;;;;;;;5.05;4.55;;;14.30;99.90;;;;;;6186011;23;20540;-75
2022/08/10 02:27:04;;;;;;;6.22;4.30;;;14.30;99.90;;;;;;6162108;23;20194;-73
2022/08/10 02:29:31;;;;;;;5.47;4.50;;;14.30;99.90;;;;;;6186292;23;20019;-74
2022/08/10 02:31:57;;;;;;;6.38;4.95;;;14.30;99.90;;;;;;6162936;23;20019;-76
2022/08/10 02:34:24;;;;;;;9.00;6.30;;;14.30;99.90;;;;;;6160679;23;20023;-75
2022/08/10 02:36:54;;;;;;;9.32;7.55;;;14.50;99.90;;;;;;6162089;23;20090;-76
2022/08/10 02:39:22;;;;;;;10.80;8.23;;;14.70;99.90;;;;;;6185567;23;20016;-76
2022/08/10 02:42:00;;;;;;;10.73;8.05;;;15.00;99.90;;;;;;6162169;23;20445;-75
2022/08/10 02:44:49;;;;;;;10.32;8.50;;;15.10;99.90;;;;;;6160621;23;20448;-74
2022/08/10 02:47:35;;;;;;;9.80;8.65;;;15.20;99.90;;;;;;6186050;23;20314;-75
2022/08/10 02:50:10;;;;;;;10.00;7.80;;;15.20;99.90;;;;;;6186640;23;20020;-75
2022/08/10 02:52:58;;;;;;;8.30;7.00;;;15.10;99.90;;;;;;6161882;23;20008;-75
2022/08/10 02:55:47;;;;;;;6.45;5.72;;;14.90;99.90;;;;;;6184434;23;20008;-76
2022/08/10 02:58:36;;;;;;;7.13;5.75;;;14.80;99.90;;;;;;6161951;23;20024;-75
2022/08/10 03:01:07;;;;;;;6.32;5.35;;;14.60;99.90;;;;;;6186199;23;20338;-75
2022/08/10 03:03:40;;;;;;;7.70;6.43;;;14.50;99.90;;;;;;6186979;23;20020;-76
2022/08/10 03:06:11;;;;;;;6.72;4.80;;;14.50;99.90;;;;;;6186053;23;20084;-76
2022/08/10 03:08:42;;;;;;;5.38;4.78;;;14.50;99.90;;;;;;6186600;23;20381;-75
2022/08/10 03:11:16;;;;;;;6.45;5.78;;;14.40;99.90;;;;;;6186278;23;20009;-75
2022/08/10 03:13:44;;;;;;;5.47;4.45;;;14.40;99.90;;;;;;6187167;23;20023;-77
2022/08/10 03:16:11;;;;;;;6.65;5.07;;;14.30;99.90;;;;;;6186645;23;20043;-75
2022/08/10 03:18:38;;;;;;;14.95;4.57;;;14.30;99.90;;;;;;6161677;23;20047;-75
2022/08/10 03:21:05;;;;;;;4.50;4.03;;;14.20;99.90;;;;;;6185539;23;20062;-76
2022/08/10 03:23:32;;;;;;;19.20;4.68;;;14.10;99.90;;;;;;6161790;23;20533;-75
2022/08/10 03:26:04;;;;;;;11.40;4.80;;;14.10;99.90;;;;;;6162536;23;20310;-74
2022/08/10 03:28:31;;;;;;;21.30;6.63;;;14.10;99.90;;;;;;6161486;23;20088;-74
2022/08/10 03:30:59;;;;;;;12.15;6.10;;;14.30;99.90;;;;;;6160958;23;20058;-75
2022/08/10 03:33:28;;;;;;;11.60;6.38;;;14.40;99.90;;;;;;6160800;23;20303;-75
2022/08/10 03:35:54;;;;;;;15.93;6.43;;;14.40;99.90;;;;;;6159631;23;20012;-75
2022/08/10 03:38:19;;;;;;;8.52;6.60;;;14.40;99.90;;;;;;6136517;23;20446;-76
2022/08/10 03:40:47;;;;;;;18.25;7.32;;;14.30;99.90;;;;;;6160532;23;20019;-76
2022/08/10 03:43:19;;;;;;;11.25;7.47;;;14.40;99.90;;;;;;6186317;23;20319;-75
2022/08/10 03:45:52;;;;;;;12.02;6.38;;;14.30;99.90;;;;;;6136444;23;20017;-75
2022/08/10 03:48:19;;;;;;;14.40;6.55;;;14.40;99.90;;;;;;6185894;23;20083;-75
2022/08/10 03:50:48;;;;;;;57.85;8.10;;;14.40;99.90;;;;;;6160170;23;20012;-75
2022/08/10 03:53:15;;;;;;;13.60;6.57;;;14.30;99.90;;;;;;6186582;23;20016;-75
2022/08/10 03:55:40;;;;;;;9.55;7.53;;;14.30;99.90;;;;;;6183022;23;20115;-75
2022/08/10 03:58:07;;;;;;;11.40;8.23;;;14.40;99.90;;;;;;6186298;23;20522;-76
2022/08/10 04:00:35;;;;;;;12.20;8.50;;;14.50;99.90;;;;;;6160570;23;20005;-77
2022/08/10 04:03:03;;;;;;;12.52;9.23;;;14.50;99.90;;;;;;6185892;23;20052;-77
2022/08/10 04:05:31;;;;;;;12.25;9.38;;;14.60;99.90;;;;;;6159696;23;20083;-76
2022/08/10 04:07:58;;;;;;;11.30;8.98;;;14.50;99.90;;;;;;6161477;23;20017;-77
2022/08/10 04:10:24;;;;;;;10.93;9.15;;;14.60;99.90;;;;;;6186115;23;20071;-77
2022/08/10 04:12:49;;;;;;;15.05;10.40;;;14.50;99.90;;;;;;6135617;23;20013;-76
2022/08/10 04:15:15;;;;;;;14.88;9.68;;;14.60;99.90;;;;;;6161394;23;20015;-76
2022/08/10 04:17:41;;;;;;;11.95;9.05;;;14.60;99.90;;;;;;6160617;23;20044;-76
2022/08/10 04:20:16;;;;;;;10.10;8.27;;;14.70;99.90;;;;;;6186672;23;20012;-77
2022/08/10 04:22:44;;;;;;;9.90;7.85;;;14.70;99.90;;;;;;6158996;23;20008;-76
2022/08/10 04:25:12;;;;;;;9.65;7.30;;;14.70;99.90;;;;;;6184654;23;20416;-76
2022/08/10 04:27:38;;;;;;;9.70;7.00;;;14.70;99.90;;;;;;6135844;23;20088;-76
2022/08/10 04:30:05;;;;;;;9.55;5.95;;;14.60;99.90;;;;;;6185758;23;20097;-76
2022/08/10 04:32:33;;;;;;;9.55;7.07;;;14.60;99.90;;;;;;6159738;23;20023;-76
2022/08/10 04:35:01;;;;;;;10.68;7.50;;;14.60;99.90;;;;;;6137023;23;20051;-77
2022/08/10 04:37:29;;;;;;;8.38;6.22;;;14.70;99.90;;;;;;6160519;23;20075;-77
2022/08/10 04:39:55;;;;;;;11.98;7.75;;;14.70;99.90;;;;;;6186176;23;20279;-77
2022/08/10 04:42:21;;;;;;;11.57;8.35;;;14.70;99.90;;;;;;6185838;23;20445;-77
2022/08/10 04:44:49;;;;;;;14.00;9.43;;;15.10;99.90;;;;;;6159681;23;20048;-77
2022/08/10 04:47:15;;;;;;;13.27;9.40;;;15.10;99.90;;;;;;6160293;23;20008;-77
2022/08/10 04:49:41;;;;;;;12.60;9.43;;;15.30;99.90;;;;;;6136477;23;20338;-76
2022/08/10 04:52:07;;;;;;;14.00;9.73;;;15.40;99.90;;;;;;6160633;23;20020;-77
2022/08/10 04:54:32;;;;;;;15.30;9.82;;;15.60;99.90;;;;;;6134342;23;20009;-77
2022/08/10 04:56:58;;;;;;;12.77;8.65;;;15.60;99.90;;;;;;6160516;23;20039;-77
2022/08/10 04:59:24;;;;;;;16.25;8.48;;;15.60;99.90;;;;;;6186858;23;20070;-78
2022/08/10 05:01:49;;;;;;;13.13;8.85;;;15.50;99.90;;;;;;6135888;23;20048;-76
2022/08/10 05:04:16;;;;;;;12.85;9.10;;;15.40;99.90;;;;;;6161937;23;20020;-77
2022/08/10 05:06:42;;;;;;;10.98;8.63;;;15.50;99.90;;;;;;6159402;23;20016;-76
2022/08/10 05:09:07;;;;;;;9.93;8.70;;;15.50;99.90;;;;;;6161736;23;20062;-76
2022/08/10 05:11:33;;;;;;;11.10;8.52;;;15.50;99.90;;;;;;6185887;23;20016;-76
2022/08/10 05:13:59;;;;;;;13.40;8.60;;;15.60;99.90;;;;;;6136156;23;20089;-76
2022/08/10 05:16:24;;;;;;;11.95;9.23;;;15.70;99.90;;;;;;6161056;23;20020;-76
2022/08/10 05:18:51;;;;;;;12.68;9.55;;;15.60;99.90;;;;;;6135765;23;20337;-77
2022/08/10 05:21:17;;;;;;;11.18;8.57;;;15.90;99.90;;;;;;6137458;23;20438;-77
2022/08/10 05:23:42;;;;;;;16.58;10.48;;;15.90;99.90;;;;;;6160525;23;20020;-77
2022/08/10 05:26:08;;;;;;;13.95;10.30;;;16.20;99.90;;;;;;6160202;23;20075;-77
2022/08/10 05:28:34;;;;;;;18.23;10.23;;;16.30;99.90;;;;;;6135405;23;20013;-77
2022/08/10 05:31:00;;;;;;;15.55;10.77;;;16.40;99.90;;;;;;6160914;23;20008;-77
2022/08/10 05:33:25;;;;;;;15.85;11.55;;;16.60;99.90;;;;;;6161759;23;20023;-77
2022/08/10 05:35:51;;;;;;;16.33;10.77;;;16.70;99.90;;;;;;6186227;23;20023;-78
2022/08/10 05:38:19;;;;;;;14.30;10.07;;;16.90;99.90;;;;;;6185808;23;20052;-78
2022/08/10 05:40:45;;;;;;;14.23;10.35;;;17.00;99.90;;;;;;6186666;23;20013;-80
2022/08/10 05:43:11;;;;;;;13.40;9.73;;;17.20;99.90;;;;;;6161377;23;20318;-78
2022/08/10 05:45:37;;;;;;;14.30;9.77;;;17.10;99.90;;;;;;6186278;23;20059;-78
2022/08/10 05:48:06;;;;;;;14.82;10.80;;;17.20;99.90;;;;;;6138990;23;20445;-77
2022/08/10 05:50:33;;;;;;;14.07;10.10;;;17.50;99.90;;;;;;6161583;23;20016;-78
2022/08/10 05:52:59;;;;;;;13.90;9.57;;;17.40;99.90;;;;;;6161337;23;20485;-78
2022/08/10 05:55:29;;;;;;;14.50;9.50;;;17.80;99.90;;;;;;6161869;23;20012;-78
2022/08/10 05:57:55;;;;;;;11.52;9.02;;;17.80;99.90;;;;;;6160623;23;20459;-78
2022/08/10 06:00:24;;;;;;;15.57;9.93;;;17.70;99.90;;;;;;6162504;23;20009;-78
2022/08/10 06:02:56;;;;;;;15.30;9.30;;;18.00;99.90;;;;;;6136995;23;20012;-79
2022/08/10 06:05:30;;;;;;;13.85;8.93;;;18.00;99.90;;;;;;6162259;23;20445;-78
2022/08/10 06:07:59;;;;;;;11.07;9.00;;;18.30;99.90;;;;;;6161747;23;20013;-78
2022/08/10 06:10:27;;;;;;;12.68;8.05;;;18.30;99.90;;;;;;6186274;23;20023;-78
2022/08/10 06:15:39;;;;;;;10.73;7.85;;;18.50;99.90;;;;;;6185903;23;20012;-78
2022/08/10 06:18:06;;;;;;;9.80;7.88;;;18.50;99.90;;;;;;6162759;23;20019;-78
2022/08/10 06:20:32;;;;;;;10.20;7.53;;;18.40;99.90;;;;;;6163523;23;20015;-79
2022/08/10 06:22:59;;;;;;;10.27;7.50;;;18.40;99.90;;;;;;6188118;23;20306;-80
2022/08/10 06:25:30;;;;;;;12.43;7.78;;;18.60;99.90;;;;;;6139029;23;20100;-78
2022/08/10 06:27:58;;;;;;;9.75;7.35;;;18.70;99.90;;;;;;6163110;23;20036;-78
2022/08/10 06:30:26;;;;;;;8.35;7.10;;;18.80;99.90;;;;;;6163885;23;20016;-78
2022/08/10 06:32:55;;;;;;;9.75;6.72;;;19.10;99.90;;;;;;6163652;23;20012;-79
2022/08/10 06:35:28;;;;;;;8.82;6.35;;;19.00;99.90;;;;;;6163030;23;20019;-77
2022/08/10 06:37:58;;;;;;;6.25;5.60;;;19.00;99.90;;;;;;6163154;23;20016;-76
2022/08/10 06:40:28;;;;;;;7.90;5.80;;;19.10;99.90;;;;;;6188883;23;20009;-76
2022/08/10 06:42:56;;;;;;;5.72;4.90;;;18.90;99.90;;;;;;6139263;23;20020;-76
2022/08/10 06:45:29;;;;;;;7.18;5.43;;;19.00;99.90;;;;;;6132814;23;20019;-77
2022/08/10 06:48:00;;;;;;;7.63;4.43;;;19.20;99.90;;;;;;6157962;23;20016;-78
2022/08/10 06:50:30;;;;;;;8.40;5.00;;;19.20;99.90;;;;;;6182766;23;20091;-76
2022/08/10 06:53:00;;;;;;;7.63;5.03;;;19.10;99.90;;;;;;6157859;23;20083;-77
2022/08/10 06:55:27;;;;;;;6.18;4.18;;;19.10;99.90;;;;;;6158278;23;20333;-77
2022/08/10 06:57:59;;;;;;;6.63;4.43;;;19.30;99.90;;;;;;6157549;23;20040;-78
2022/08/10 07:00:35;;;;;;;5.65;4.20;;;19.40;99.90;;;;;;6182664;23;20024;-78
2022/08/10 07:03:06;;;;;;;6.60;4.45;;;19.40;99.90;;;;;;6133250;23;20456;-78
2022/08/10 07:05:37;;;;;;;8.55;4.68;;;19.20;99.90;;;;;;6157975;23;20032;-79
2022/08/10 07:08:03;;;;;;;6.90;5.00;;;19.20;99.90;;;;;;6159249;23;20017;-78
2022/08/10 07:10:31;;;;;;;7.70;5.40;;;19.30;99.90;;;;;;6183564;23;20031;-77
2022/08/10 07:12:59;;;;;;;9.63;4.90;;;19.30;99.90;;;;;;6132914;23;20019;-77
2022/08/10 07:15:37;;;;;;;4.75;4.18;;;19.10;99.90;;;;;;6182486;23;20028;-78
2022/08/10 07:18:04;;;;;;;6.30;4.20;;;19.40;99.90;;;;;;6182892;23;20059;-76
2022/08/10 07:20:33;;;;;;;6.22;4.82;;;19.40;99.90;;;;;;6157772;23;20009;-76
2022/08/10 07:23:01;;;;;;;8.43;4.78;;;19.50;99.90;;;;;;6157346;23;20024;-78
2022/08/10 07:25:27;;;;;;;6.30;4.32;;;19.40;99.90;;;;;;6133937;23;20021;-77
2022/08/10 07:27:56;;;;;;;4.57;4.00;;;19.50;99.90;;;;;;6181850;23;20035;-77
2022/08/10 07:30:23;;;;;;;5.20;3.80;;;19.50;99.90;;;;;;6158160;23;20040;-76
2022/08/10 07:32:51;;;;;;;6.43;3.80;;;19.50;99.90;;;;;;6157329;23;20457;-76
2022/08/10 07:35:18;;;;;;;4.88;3.70;;;19.60;99.90;;;;;;6157241;23;20337;-76
2022/08/10 07:37:48;;;;;;;5.32;3.25;;;19.60;99.90;;;;;;6181899;23;20071;-77
2022/08/10 07:40:16;;;;;;;3.83;3.10;;;19.70;99.90;;;;;;6158160;23;20017;-78
2022/08/10 07:42:46;;;;;;;3.90;3.30;;;19.70;99.90;;;;;;6157139;23;20071;-77
2022/08/10 07:45:12;;;;;;;6.10;3.60;;;19.90;99.90;;;;;;6157209;23;20389;-81
2022/08/10 07:47:54;;;;;;;5.43;3.13;;;19.90;99.90;;;;;;6157791;23;20017;-80
2022/08/10 07:50:23;;;;;;;4.00;3.03;;;20.10;99.90;;;;;;6182673;23;20013;-79
2022/08/10 07:52:52;;;;;;;4.75;3.17;;;20.00;99.90;;;;;;6181866;23;20009;-79
2022/08/10 07:55:19;;;;;;;5.57;2.88;;;20.10;99.90;;;;;;6182786;23;20064;-79
2022/08/10 07:57:48;;;;;;;4.45;3.20;;;20.20;99.90;;;;;;6157910;23;20062;-80
2022/08/10 08:00:15;;;;;;;4.68;2.70;;;20.30;99.90;;;;;;6156882;23;20020;-79
2022/08/10 08:02:55;;;;;;;4.78;3.08;;;20.40;99.90;;;;;;6156595;23;20013;-79
2022/08/10 08:05:24;;;;;;;4.72;2.95;;;20.30;99.90;;;;;;6157500;23;20024;-79
2022/08/10 08:07:52;;;;;;;4.15;2.38;;;20.40;99.90;;;;;;6156870;23;20143;-79
2022/08/10 08:10:21;;;;;;;4.15;2.55;;;20.50;99.90;;;;;;6158097;23;20021;-79
2022/08/10 08:12:48;;;;;;;5.45;2.75;;;20.50;99.90;;;;;;6182021;23;20013;-80
2022/08/10 08:15:18;;;;;;;4.57;2.40;;;20.50;99.90;;;;;;6132946;23;20017;-79
2022/08/10 08:17:46;;;;;;;3.65;2.20;;;20.50;99.90;;;;;;6156731;23;20036;-80
2022/08/10 08:20:16;;;;;;;4.55;2.33;;;20.60;99.90;;;;;;6182796;23;20381;-78
2022/08/10 08:22:43;;;;;;;3.63;2.70;;;20.70;99.90;;;;;;6157797;23;20020;-79
2022/08/10 08:25:10;;;;;;;3.45;2.60;;;20.70;99.90;;;;;;6132730;23;20396;-80
2022/08/10 08:27:40;;;;;;;3.55;2.63;;;20.80;99.90;;;;;;6157446;23;20009;-79
2022/08/10 08:30:07;;;;;;;4.45;2.35;;;20.80;99.90;;;;;;6156130;23;20048;-78
2022/08/10 08:32:37;;;;;;;3.55;2.30;;;20.90;99.90;;;;;;6156764;23;20043;-78
2022/08/10 08:35:08;;;;;;;3.88;2.17;;;21.00;99.90;;;;;;6156011;23;20446;-78
2022/08/10 08:37:36;;;;;;;3.42;2.60;;;21.20;99.90;;;;;;6156073;23;20067;-78
2022/08/10 08:40:25;;;;;;;4.20;2.58;;;21.20;99.90;;;;;;6130823;23;20473;-78
2022/08/10 08:43:03;;;;;;;5.53;2.75;;;21.10;99.90;;;;;;6154039;23;20377;-77
2022/08/10 08:46:03;;;;;;;3.85;2.22;;;21.30;99.90;;;;;;6177908;23;20075;-77
2022/08/10 08:48:36;;;;;;;3.10;2.30;;;21.50;99.90;;;;;;6154873;23;20032;-78
2022/08/10 08:51:19;;;;;;;3.25;2.17;;;21.60;99.90;;;;;;6179426;23;20020;-77
2022/08/10 08:54:03;;;;;;;4.38;2.40;;;21.60;99.90;;;;;;6154300;23;20357;-77
2022/08/10 08:56:45;;;;;;;3.97;2.58;;;21.90;99.90;;;;;;6155089;23;20322;-77
2022/08/10 08:59:33;;;;;;;2.78;1.90;;;22.00;99.90;;;;;;6155000;23;20044;-77
2022/08/10 09:02:47;;;;;;;3.05;1.95;;;22.10;99.90;;;;;;6155610;23;20013;-77
2022/08/10 09:05:45;;;;;;;3.40;2.60;;;22.10;99.90;;;;;;6154747;23;20017;-75
2022/08/10 09:08:26;;;;;;;3.47;2.20;;;22.10;99.90;;;;;;6114746;23;20095;-78
2022/08/10 09:11:23;;;;;;;3.05;2.17;;;22.40;99.90;;;;;;6131292;23;20013;-77
2022/08/10 09:14:18;;;;;;;5.30;1.95;;;22.30;99.90;;;;;;6179461;23;20048;-75
2022/08/10 09:16:50;;;;;;;3.15;2.13;;;22.40;99.90;;;;;;6155030;23;20067;-75
2022/08/10 09:19:47;;;;;;;3.25;2.25;;;22.50;99.90;;;;;;6179339;23;20017;-75
2022/08/10 09:22:25;;;;;;;3.78;2.08;;;22.70;99.90;;;;;;6154817;23;20020;-77
2022/08/10 09:25:19;;;;;;;2.40;1.90;;;23.10;99.90;;;;;;6178467;23;20326;-76
2022/08/10 09:28:00;;;;;;;2.92;1.88;;;23.20;99.90;;;;;;6173614;23;20010;-76
2022/08/10 09:30:45;;;;;;;3.85;2.38;;;23.10;99.90;;;;;;6177070;23;20645;-77
2022/08/10 09:33:14;;;;;;;3.20;2.53;;;23.10;99.90;;;;;;6152406;23;20434;-76
2022/08/10 09:36:04;;;;;;;5.15;2.35;;;23.40;99.90;;;;;;6179743;23;20013;-76
2022/08/10 09:39:04;;;;;;;4.63;2.45;;;23.60;99.90;;;;;;6179560;23;20017;-76
2022/08/10 09:41:45;;;;;;;2.10;1.88;;;23.80;99.90;;;;;;6179515;23;20048;-77
2022/08/10 09:44:33;;;;;;;4.70;1.70;;;24.10;99.90;;;;;;6179709;23;20509;-76
2022/08/10 09:47:21;;;;;;;2.47;1.90;;;24.70;99.90;;;;;;6154485;23;20017;-77
2022/08/10 09:50:14;;;;;;;2.38;1.63;;;25.00;99.90;;;;;;6130052;23;20017;-77
2022/08/10 09:53:01;;;;;;;3.63;1.80;;;25.10;99.90;;;;;;6131956;23;20017;-77
2022/08/10 09:55:35;;;;;;;2.53;1.60;;;25.50;99.90;;;;;;6156286;23;20349;-77
2022/08/10 09:58:25;;;;;;;3.30;1.60;;;25.90;99.90;;;;;;6156412;23;20028;-78
2022/08/10 10:01:11;;;;;;;2.72;1.80;;;26.40;99.90;;;;;;6131457;23;20061;-77
2022/08/10 10:03:46;;;;;;;2.92;1.70;;;26.50;99.90;;;;;;6156887;23;20063;-80
2022/08/10 10:06:22;;;;;;;3.58;1.75;;;26.50;99.90;;;;;;6108803;23;20017;-80
2022/08/10 10:09:13;;;;;;;2.33;1.50;;;26.60;99.90;;;;;;6132056;23;20017;-80
2022/08/10 10:12:06;;;;;;;2.35;1.88;;;26.50;99.90;;;;;;6133613;23;20024;-80
2022/08/10 10:15:29;;;;;;;3.28;1.50;;;26.60;99.90;;;;;;6121419;23;20342;-80
2022/08/10 10:18:13;;;;;;;1.77;1.60;;;26.90;99.90;;;;;;6065760;23;20410;-80
2022/08/10 10:20:43;;;;;;;2.55;1.48;;;26.90;99.90;;;;;;6043061;23;20014;-79
2022/08/10 10:23:21;;;;;;;3.10;1.70;;;27.00;99.90;;;;;;6108779;23;20009;-79
2022/08/10 10:26:00;;;;;;;2.28;1.60;;;26.80;99.90;;;;;;6157571;23;20100;-80
2022/08/10 10:28:44;;;;;;;3.60;1.63;;;27.20;99.90;;;;;;6131471;23;20382;-81
2022/08/10 10:31:29;;;;;;;;;;;26.90;99.90;;;;;;6158370;23;20050;-80
2022/08/10 10:34:01;;;;;;;2.58;1.33;;;26.40;99.90;;;;;;6133114;23;19918;-81
2022/08/10 10:36:28;;;;;;;2.42;1.50;;;26.50;99.90;;;;;;6134131;23;20024;-81
2022/08/10 10:38:57;;;;;;;1.85;1.40;;;27.00;99.90;;;;;;6132991;23;20021;-80
2022/08/10 10:41:33;;;;;;;1.70;1.40;;;26.60;99.90;;;;;;6133273;23;20017;-80
2022/08/10 10:44:26;;;;;;;2.55;1.27;;;26.30;99.90;;;;;;6157483;23;20096;-79
2022/08/10 10:47:20;;;;;;;2.67;1.40;;;26.00;99.90;;;;;;6133397;23;20028;-80
2022/08/10 10:50:14;;;;;;;2.00;1.23;;;26.20;99.90;;;;;;6133274;23;20015;-80
2022/08/10 10:53:08;;;;;;;1.65;1.08;;;26.70;99.90;;;;;;6133615;23;20358;-81
2022/08/10 10:55:44;;;;;;;3.97;1.40;;;27.20;99.90;;;;;;6130029;23;20017;-81
2022/08/10 10:58:37;;;;;;;1.88;1.27;;;27.10;99.90;;;;;;6133081;23;20013;-81
2022/08/10 11:01:51;;;;;;;1.83;1.30;;;27.20;95.80;;;;;;6131322;23;20028;-71
2022/08/10 11:04:26;;;;;;;1.95;1.20;;;27.70;93.10;;;;;;6126577;23;20064;-77
2022/08/10 11:07:31;;;;;;;1.67;1.33;;;27.50;97.10;;;;;;6131338;23;20450;-79
2022/08/10 11:10:00;;;;;;;2.05;1.45;;;27.80;86.90;;;;;;6131792;23;20049;-79
2022/08/10 11:12:36;;;;;;;1.70;1.30;;;28.10;99.50;;;;;;6132185;23;20072;-80
2022/08/10 11:15:13;;;;;;;1.80;1.30;;;27.30;88.30;;;;;;6132374;23;20391;-79
2022/08/10 11:17:53;;;;;;;1.77;1.20;;;26.90;80.50;;;;;;6133151;23;20386;-80
2022/08/10 11:20:49;;;;;;;1.70;1.33;;;27.40;72.40;;;;;;6132495;23;20021;-78
2022/08/10 11:23:18;;;;;;;2.63;1.40;;;27.60;76.10;;;;;;6155969;23;20080;-79
2022/08/10 11:25:56;;;;;;;3.28;1.58;;;27.40;68.90;;;;;;6132009;23;20032;-80
2022/08/10 11:28:34;;;;;;;2.45;1.60;;;26.70;81.20;;;;;;6156971;23;20013;-82
2022/08/10 11:31:15;;;;;;;2.50;1.48;;;26.90;90.60;;;;;;6132960;23;20009;-81
2022/08/10 11:33:57;;;;;;;2.08;1.35;;;27.40;64.50;;;;;;6133413;23;20017;-83
2022/08/10 11:36:53;;;;;;;2.58;1.50;;;27.50;80.30;;;;;;6133814;23;20426;-79
2022/08/10 11:39:38;;;;;;;2.08;1.30;;;27.50;81.60;;;;;;6132586;23;20342;-81
2022/08/10 11:42:20;;;;;;;1.90;1.40;;;27.70;50.40;;;;;;6133005;23;20017;-81
2022/08/10 11:45:07;;;;;;;3.30;1.40;;;27.90;33.00;;;;;;6161780;23;20021;-81
2022/08/10 11:47:43;;;;;;;2.13;1.40;;;27.00;51.20;;;;;;6141272;23;20070;-81
2022/08/10 11:50:15;;;;;;;1.80;1.30;;;27.40;79.50;;;;;;6186819;23;20008;-81
2022/08/10 11:53:23;;;;;;;2.97;1.40;;;27.70;62.80;;;;;;6161400;23;20019;-80
2022/08/10 11:55:57;;;;;;;1.92;1.25;;;27.80;42.70;;;;;;6038877;23;20026;-79
2022/08/10 12:01:16;;;;;;;2.03;1.30;;;28.60;21.30;;;;;;6185160;23;19919;-80
2022/08/10 12:03:45;;;;;;;1.88;1.30;;;28.30;57.20;;;;;;6160269;23;20012;-79
2022/08/10 12:06:15;;;;;;;1.27;1.17;;;27.80;38.80;;;;;;6160412;23;20016;-82
2022/08/10 12:08:42;;;;;;;3.72;1.30;;;27.50;46.90;;;;;;6161777;23;20036;-82
2022/08/10 12:11:12;;;;;;;4.50;1.10;;;27.90;48.50;;;;;;6184877;23;20020;-81
2022/08/10 12:14:01;;;;;;;1.95;1.30;;;27.70;36.30;;;;;;6185250;23;20952;-85
2022/08/10 12:16:30;;;;;;;3.25;1.25;;;27.40;1.00;;;;;;6113121;23;20027;-65
2022/08/10 12:19:03;;;;;;;2.35;1.25;;;28.10;32.00;;;;;;6181995;23;20016;-83
2022/08/10 12:21:39;;;;;;;2.50;1.23;;;27.90;25.00;;;;;;6161285;23;20017;-80
2022/08/10 12:24:17;;;;;;;4.15;1.58;;;28.00;45.10;;;;;;6160414;23;20013;-79
2022/08/10 12:26:58;;;;;;;1.92;1.30;;;27.80;44.60;;;;;;6184466;23;20016;-80
2022/08/10 12:29:32;;;;;;;2.40;1.30;;;27.40;49.00;;;;;;6184586;23;20017;-80
2022/08/10 12:32:19;;;;;;;2.03;1.73;;;27.40;66.70;;;;;;6159104;23;20013;-80
2022/08/10 12:35:22;;;;;;;1.65;1.25;;;28.10;65.70;;;;;;6160345;23;20333;-81
2022/08/10 12:38:20;;;;;;;4.30;1.38;;;28.30;69.70;;;;;;6159289;23;20078;-79
2022/08/10 12:40:59;;;;;;;2.08;1.30;;;27.80;54.00;;;;;;6149169;23;20016;-78
2022/08/10 12:43:34;;;;;;;4.75;1.40;;;27.40;55.70;;;;;;6184029;23;20091;-79
2022/08/10 12:46:08;;;;;;;4.50;1.52;;;27.30;60.40;;;;;;6157697;23;20016;-76
2022/08/10 12:48:49;;;;;;;3.28;1.80;;;27.20;74.60;;;;;;6159811;23;20020;-78
2022/08/10 12:51:22;;;;;;;2.50;1.60;;;27.50;83.60;;;;;;6181942;23;20017;-76
2022/08/10 12:54:07;;;;;;;;;;;27.00;69.00;;;;;;6183716;23;20035;-80
2022/08/10 12:56:55;;;;;;;2.85;1.30;;;27.20;68.90;;;;;;6158243;23;19935;-79
2022/08/10 12:59:26;;;;;;;1.92;1.40;;;27.40;79.60;;;;;;6180725;23;20017;-77
2022/08/10 13:01:54;;;;;;;4.65;1.77;;;27.40;81.30;;;;;;6158750;23;20068;-76
2022/08/10 13:04:33;;;;;;;4.50;1.60;;;26.80;66.60;;;;;;6182710;23;20024;-80
2022/08/10 13:07:01;;;;;;;3.58;1.50;;;27.20;69.70;;;;;;6183988;23;20040;-80
2022/08/10 13:09:28;;;;;;;2.03;1.40;;;27.90;77.00;;;;;;6184488;23;20017;-78
2022/08/10 13:12:02;;;;;;;3.70;1.50;;;28.10;72.60;;;;;;6134850;23;20023;-79
2022/08/10 13:15:06;;;;;;;2.10;1.45;;;27.90;66.30;;;;;;6183717;23;20017;-80
2022/08/10 13:17:34;;;;;;;1.77;1.60;;;28.10;49.80;;;;;;6183747;23;20017;-80
2022/08/10 13:20:26;;;;;;;2.08;1.50;;;27.70;65.00;;;;;;6158937;23;20068;-80
2022/08/10 13:22:55;;;;;;;2.22;1.30;;;27.40;53.20;;;;;;6092342;23;20099;-80
2022/08/10 13:25:44;;;;;;;3.40;1.67;;;27.10;59.80;;;;;;6183793;23;20012;-80